• Join FlightAware (Why Join?)
  • Login
  • US Flag 
09:00AM EDT


 

Airport Tracker/Info


-or-


 

Live Flight TrackerFlight Track Log ✈ EJA122 ✈ 04-Nov-2013 ✈ KOSU - KSRQ

Flight Track Log - Related Links

Times and Time Zones

All times are in EST time to prevent confusion due to time zone crossing. See the EJA122 flight status page for this flight to view local times or setup timezone preferences in your user account.

Time Position Orientation Groundspeed Altitude Reporting Facility
EST Latitude Longitude Course Direction KTS MPH feet Rate Location/Type
07:30AM 38.9266 -83.0189 178° South  Level Estimated
07:31AM 38.8113 -83.0135 178° South  Level Estimated
07:32AM 38.6960 -83.0082 178° South  Level Estimated
07:33AM 38.5807 -83.0029 178° South  Level Estimated
07:34AM 38.4653 -82.9977 178° South  Level Estimated
07:35AM 38.3500 -82.9924 178° South  Level Estimated
07:36AM 38.2347 -82.9872 178° South  Level Estimated
07:37AM 38.1194 -82.9819 178° South  Level Estimated
07:38AM 38.0040 -82.9767 178° South  Level Estimated
07:39AM 37.8887 -82.9715 178° South  Level Estimated
07:40AM 37.7734 -82.9663 178° South  Level Estimated
07:41AM 37.6580 -82.9612 178° South  Level Estimated
07:42AM 37.5427 -82.9560 178° South  Level Estimated
07:43AM 37.4274 -82.9509 178° South  Level Estimated
07:44AM 37.3120 -82.9458 178° South  Level Estimated
07:45AM 37.1967 -82.9407 178° South  Level Estimated
07:46AM 37.0814 -82.9356 178° South  Level Estimated
07:47AM 36.9660 -82.9305 178° South  Level Estimated
07:48AM 36.8507 -82.9255 178° South  Level Estimated
07:49AM 36.7354 -82.9204 178° South  Level Estimated
07:50AM 36.6201 -82.9154 178° South  Level Estimated
07:51AM 36.5047 -82.9104 178° South  Level Estimated
07:52AM 36.3894 -82.9054 178° South  Level Estimated
07:53AM 36.2741 -82.9005 178° South  Level Estimated
07:54AM 36.1587 -82.8955 178° South  Level Estimated
07:55AM 36.0434 -82.8905 178° South  Level Estimated
07:56AM 35.9281 -82.8856 178° South  Level Estimated
07:57AM 35.8128 -82.8807 178° South  Level Estimated
07:58AM 35.6974 -82.8758 178° South  Level Estimated
07:59AM 35.5821 -82.8709 178° South  Level Estimated
08:00AM 35.4668 -82.8660 178° South  Level Estimated
08:01AM 35.3514 -82.8612 178° South  Level Estimated
08:02AM 35.2361 -82.8563 178° South  Level Estimated
08:03AM 35.1208 -82.8515 178° South  Level Estimated
08:04AM 35.0054 -82.8466 178° South  Level Estimated
08:05AM 34.8901 -82.8418 178° South  Level Estimated
08:06AM 34.7748 -82.8370 178° South  Level Estimated
08:07AM 34.6595 -82.8323 178° South  Level Estimated
08:08AM 34.5441 -82.8275 178° South  Level Estimated
08:09AM 34.4288 -82.8227 178° South  Level Estimated
08:10AM 34.3135 -82.8180 178° South  Level Estimated
08:11AM 34.1981 -82.8133 178° South  Level Estimated
08:12AM 34.0828 -82.8085 178° South  Level Estimated
08:13AM 33.9675 -82.8038 178° South  Level Estimated
08:14AM 33.8521 -82.7991 178° South  Level Estimated
08:15AM 33.7368 -82.7945 178° South  Level Estimated
08:16AM 33.6215 -82.7898 178° South  Level Estimated
08:17AM 33.5061 -82.7851 178° South  Level Estimated
08:18AM 33.3908 -82.7805 178° South  Level Estimated
08:19AM 33.2755 -82.7759 178° South  Level Estimated
08:20AM 33.1689 -82.7716 178° South  Level Estimated
08:21AM 33.0623 -82.7673 178° South  Level Estimated
08:22AM 32.9557 -82.7631 178° South  Level Estimated
08:23AM 32.8490 -82.7589 178° South  Level Estimated
08:24AM 32.7424 -82.7546 178° South  Level Estimated
08:25AM 32.6358 -82.7504 178° South  Level Estimated
08:26AM 32.5292 -82.7462 178° South  Level Estimated
08:27AM 32.4226 -82.7420 178° South  Level Estimated
08:28AM 32.3160 -82.7378 178° South  Level Estimated
08:29AM 32.2094 -82.7336 178° South  Level Estimated
08:30AM 32.1028 -82.7295 178° South  Level Estimated
08:31AM 31.9962 -82.7253 178° South  Level Estimated
08:32AM 31.8896 -82.7212 178° South  Level Estimated
08:33AM 31.7829 -82.7170 178° South  Level Estimated
08:34AM 31.6763 -82.7129 178° South  Level Estimated
08:35AM 31.5697 -82.7088 178° South  Level Estimated
08:36AM 31.4631 -82.7047 178° South  Level Estimated
08:37AM 31.3565 -82.7005 178° South  Level Estimated
08:38AM 31.2499 -82.6965 178° South  Level Estimated
08:39AM 31.1433 -82.6924 178° South  Level Estimated
08:40AM 31.0367 -82.6883 178° South  Level Estimated
08:41AM 30.9301 -82.6842 178° South  Level Estimated
08:42AM 30.8235 -82.6802 178° South  Level Estimated
08:43AM 30.7169 -82.6762 178° South  Level Estimated
08:44AM 30.6102 -82.6721 178° South  Level Estimated
08:45AM 30.5036 -82.6681 178° South  Level Estimated
08:46AM 30.3970 -82.6641 178° South  Level Estimated
08:47AM 30.2904 -82.6601 178° South  Level Estimated
08:48AM 30.1838 -82.6561 178° South  Level Estimated
08:49AM 30.0772 -82.6521 178° South  Level Estimated
08:50AM 29.9706 -82.6481 178° South  Level Estimated
08:51AM 29.8639 -82.6441 178° South  Level Estimated
08:52AM 29.7573 -82.6402 178° South  Level Estimated
08:53AM 29.6507 -82.6362 178° South  Level Estimated
08:54AM 29.5441 -82.6322 178° South  Level Estimated
08:55AM 29.4375 -82.6283 178° South  Level Estimated
08:56AM 29.3308 -82.6244 178° South  Level Estimated
08:57AM 29.2242 -82.6205 178° South  Level Estimated
08:58AM 29.1176 -82.6165 178° South  Level Estimated
08:59AM 29.0110 -82.6126 178° South  Level Estimated
09:00AM 28.9044 -82.6087 178° South  Level Estimated
09:01AM 28.7977 -82.6048 178° South  Level Estimated
09:02AM 28.6911 -82.6010 178° South  Level Estimated
09:03AM 28.5845 -82.5971 178° South  Level Estimated
09:04AM 28.4779 -82.5932 178° South  Level Estimated
09:05AM 28.3713 -82.5893 178° South  Level Estimated
09:06AM 28.2646 -82.5855 178° South  Level Estimated
09:07AM 28.1580 -82.5817 178° South  Level Estimated
09:08AM 28.0514 -82.5778 178° South  Level Estimated
09:09AM 27.9448 -82.5740 178° South  Level Estimated
09:10AM 27.8382 -82.5702 178° South  Level Estimated
09:11AM 27.7315 -82.5664 178° South  Level Estimated
09:12AM 27.6249 -82.5626 178° South  Level Estimated
09:13AM 27.5183 -82.5587 178° South  Level Estimated
09:14AM 27.4117 -82.5550 178° South  Level Estimated
09:15AM 27.3954 -82.5544 178° South  Level Estimated
09:16AM 27.3954 -82.5544 13° North  Level Estimated
09:17AM 27.3954 -82.5544 13° North  Level Estimated
09:18AM 27.3954 -82.5544 13° North  Level Estimated
09:19AM 27.3954 -82.5544 13° North  Level Estimated
09:20AM 27.3954 -82.5544 13° North  Level Estimated
09:21AM 27.3954 -82.5544 13° North  Level Estimated
09:22AM 27.3954 -82.5544 13° North  Level Estimated
09:23AM 27.3954 -82.5544 13° North  Level Estimated
09:24AM 27.3954 -82.5544 13° North  Level Estimated
09:25AM 27.3954 -82.5544 13° North  Level Estimated
09:26AM 27.3954 -82.5544 13° North  Level Estimated
09:27AM 27.3954 -82.5544 13° North  Level Estimated
09:28AM 27.3954 -82.5544 13° North  Level Estimated
09:29AM 27.3954 -82.5544 13° North  Level Estimated
09:30AM 27.3954 -82.5544 13° North  Level Estimated